createdAt,value
2022-11-10T00:01:06.034Z,7.40
2022-11-10T00:03:33.525Z,7.30
2022-11-10T00:06:05.892Z,7.20
2022-11-10T00:08:32.853Z,7.10
2022-11-10T00:11:04.947Z,7.10
2022-11-10T00:13:35.771Z,7.00
2022-11-10T00:16:23.984Z,7.40
2022-11-10T00:18:51.297Z,7.50
2022-11-10T00:21:18.534Z,7.20
2022-11-10T00:23:47.686Z,7.30
2022-11-10T00:26:20.057Z,7.20
2022-11-10T00:28:47.167Z,7.30
2022-11-10T00:31:14.255Z,7.20
2022-11-10T00:33:43.310Z,7.30
2022-11-10T00:36:10.628Z,7.30
2022-11-10T00:38:37.734Z,7.30
2022-11-10T00:41:04.880Z,7.20
2022-11-10T00:43:32.269Z,7.20
2022-11-10T00:45:59.457Z,7.20
2022-11-10T00:48:26.398Z,7.20
2022-11-10T00:50:53.478Z,7.10
2022-11-10T00:53:20.708Z,7.10
2022-11-10T00:55:48.827Z,7.10
2022-11-10T00:58:15.953Z,7.00
2022-11-10T01:00:42.893Z,7.00
2022-11-10T01:03:15.440Z,7.00
2022-11-10T01:05:43.191Z,7.10
2022-11-10T01:08:10.574Z,7.00
2022-11-10T01:10:37.493Z,7.10
2022-11-10T01:13:04.334Z,7.00
2022-11-10T01:15:31.418Z,7.00
2022-11-10T01:17:58.389Z,7.10
2022-11-10T01:20:25.810Z,7.10
2022-11-10T01:22:53.838Z,7.20
2022-11-10T01:25:21.267Z,7.00
2022-11-10T01:27:48.161Z,6.90
2022-11-10T01:30:15.493Z,6.90
2022-11-10T01:32:42.681Z,6.90
2022-11-10T01:35:09.774Z,6.90
2022-11-10T01:37:36.734Z,7.00
2022-11-10T01:40:05.179Z,6.70
2022-11-10T01:42:52.031Z,6.80
2022-11-10T01:45:24.721Z,6.80
2022-11-10T01:47:55.676Z,6.80
2022-11-10T01:50:26.173Z,6.80
2022-11-10T01:52:56.640Z,6.80
2022-11-10T01:55:24.606Z,6.70
2022-11-10T01:57:51.871Z,6.80
2022-11-10T02:00:19.624Z,6.60
2022-11-10T02:02:56.134Z,6.70
2022-11-10T02:05:23.942Z,6.70
2022-11-10T02:07:51.888Z,6.70
2022-11-10T02:10:20.840Z,6.60
2022-11-10T02:12:49.607Z,6.70
2022-11-10T02:15:18.299Z,6.70
2022-11-10T02:17:48.106Z,6.70
2022-11-10T02:20:19.243Z,6.70
2022-11-10T02:22:46.112Z,6.70
2022-11-10T02:25:17.338Z,6.60
2022-11-10T02:27:44.228Z,6.60
2022-11-10T02:30:11.974Z,6.70
2022-11-10T02:32:39.188Z,6.50
2022-11-10T02:35:06.406Z,6.70
2022-11-10T02:37:33.248Z,6.70
2022-11-10T02:40:00.105Z,6.70
2022-11-10T02:42:27.036Z,6.70
2022-11-10T02:44:53.874Z,6.90
2022-11-10T02:47:20.812Z,7.00
2022-11-10T02:49:47.626Z,6.90
2022-11-10T02:52:14.470Z,6.80
2022-11-10T02:54:41.418Z,6.80
2022-11-10T02:57:08.623Z,7.00
2022-11-10T02:59:35.451Z,7.00
2022-11-10T03:02:02.312Z,7.00
2022-11-10T03:04:29.601Z,7.00
2022-11-10T03:06:56.501Z,7.00
2022-11-10T03:09:23.433Z,6.90
2022-11-10T03:11:50.263Z,6.90
2022-11-10T03:14:17.117Z,6.70
2022-11-10T03:16:43.969Z,6.60
2022-11-10T03:19:10.821Z,6.50
2022-11-10T03:21:37.747Z,6.50
2022-11-10T03:24:05.073Z,6.50
2022-11-10T03:26:31.927Z,6.40
2022-11-10T03:28:58.747Z,6.50
2022-11-10T03:31:25.657Z,6.40
2022-11-10T03:33:52.517Z,6.40
2022-11-10T03:36:19.475Z,6.50
2022-11-10T03:38:46.608Z,6.40
2022-11-10T03:41:21.042Z,6.50
2022-11-10T03:43:49.372Z,6.70
2022-11-10T03:46:16.992Z,6.60
2022-11-10T03:48:48.769Z,6.60
2022-11-10T03:51:18.917Z,6.50
2022-11-10T03:53:45.804Z,6.50
2022-11-10T03:56:13.112Z,6.50
2022-11-10T03:58:40.820Z,6.50
2022-11-10T04:01:08.232Z,6.50
2022-11-10T04:03:35.129Z,6.30
2022-11-10T04:06:20.485Z,6.30
2022-11-10T04:08:59.094Z,6.40
2022-11-10T04:11:45.586Z,6.30
2022-11-10T04:14:31.531Z,6.20
2022-11-10T04:16:58.977Z,6.30
2022-11-10T04:19:25.934Z,6.20
2022-11-10T04:21:52.893Z,6.30
2022-11-10T04:24:19.999Z,6.30
2022-11-10T04:26:48.592Z,6.20
2022-11-10T04:29:17.735Z,6.20
2022-11-10T04:31:44.679Z,6.10
2022-11-10T04:34:14.865Z,6.10
2022-11-10T04:36:43.454Z,6.10
2022-11-10T04:39:11.153Z,6.00
2022-11-10T04:41:38.321Z,6.00
2022-11-10T04:44:05.553Z,6.00
2022-11-10T04:46:39.162Z,6.20
2022-11-10T04:49:07.190Z,6.30
2022-11-10T04:51:36.707Z,6.10
2022-11-10T04:54:05.633Z,6.30
2022-11-10T04:56:32.712Z,6.20
2022-11-10T04:58:59.548Z,6.10
2022-11-10T05:01:28.091Z,6.20
2022-11-10T05:03:55.964Z,6.10
2022-11-10T05:06:22.850Z,6.00
2022-11-10T05:08:50.243Z,5.90
2022-11-10T05:11:17.221Z,5.80
2022-11-10T05:13:45.588Z,5.90
2022-11-10T05:16:13.169Z,5.90
2022-11-10T05:18:40.510Z,5.80
2022-11-10T05:21:07.531Z,5.80
2022-11-10T05:23:40.483Z,5.70
2022-11-10T05:26:13.047Z,5.90
2022-11-10T05:28:41.744Z,5.90
2022-11-10T05:31:09.339Z,5.80
2022-11-10T05:33:37.950Z,5.70
2022-11-10T05:36:06.061Z,5.70
2022-11-10T05:38:32.947Z,5.70
2022-11-10T05:41:00.355Z,5.70
2022-11-10T05:43:27.417Z,6.90
2022-11-10T05:45:54.356Z,5.90
2022-11-10T05:48:21.227Z,5.90
2022-11-10T05:50:48.542Z,5.80
2022-11-10T05:53:15.424Z,5.60
2022-11-10T05:55:42.306Z,5.80
2022-11-10T05:58:09.471Z,5.80
2022-11-10T06:00:36.647Z,5.70
2022-11-10T06:03:13.561Z,5.90
2022-11-10T06:05:40.685Z,5.70
2022-11-10T06:08:08.311Z,5.70
2022-11-10T06:10:36.622Z,5.70
2022-11-10T06:13:03.840Z,5.80
2022-11-10T06:15:30.751Z,6.00
2022-11-10T06:17:58.288Z,6.00
2022-11-10T06:20:26.138Z,6.00
2022-11-10T06:23:11.740Z,6.00
2022-11-10T06:25:40.761Z,6.20
2022-11-10T06:28:09.101Z,6.20
2022-11-10T06:30:37.834Z,6.30
2022-11-10T06:33:05.039Z,6.30
2022-11-10T06:35:31.891Z,6.40
2022-11-10T06:38:04.233Z,6.60
2022-11-10T06:40:32.213Z,6.60
2022-11-10T06:42:59.692Z,6.60
2022-11-10T06:45:28.627Z,6.70
2022-11-10T06:48:12.029Z,6.80
2022-11-10T06:50:38.938Z,6.80
2022-11-10T06:53:05.834Z,6.80
2022-11-10T06:55:32.980Z,6.70
2022-11-10T06:58:00.248Z,6.80
2022-11-10T07:00:29.003Z,6.80
2022-11-10T07:03:22.391Z,7.00
2022-11-10T07:05:49.481Z,6.90
2022-11-10T07:08:16.830Z,6.90
2022-11-10T07:10:45.874Z,7.00
2022-11-10T07:13:12.763Z,7.10
2022-11-10T07:15:39.609Z,7.00
2022-11-10T07:18:06.518Z,7.00
2022-11-10T07:20:33.719Z,7.00
2022-11-10T07:23:03.030Z,7.00
2022-11-10T07:25:32.081Z,7.00
2022-11-10T07:28:01.124Z,7.10
2022-11-10T07:30:29.466Z,7.00
2022-11-10T07:32:59.143Z,7.00
2022-11-10T07:35:28.435Z,7.00
2022-11-10T07:37:56.515Z,7.10
2022-11-10T07:40:23.944Z,7.10
2022-11-10T07:42:50.787Z,7.10
2022-11-10T07:45:17.670Z,7.10
2022-11-10T07:47:44.573Z,7.10
2022-11-10T07:50:11.552Z,7.20
2022-11-10T07:52:38.447Z,7.20
2022-11-10T07:55:06.665Z,7.20
2022-11-10T07:57:33.788Z,7.20
2022-11-10T08:00:00.740Z,7.30
2022-11-10T08:02:28.161Z,7.30
2022-11-10T08:04:55.013Z,7.40
2022-11-10T08:07:21.942Z,7.40
2022-11-10T08:09:48.960Z,7.40
2022-11-10T08:12:15.817Z,7.50
2022-11-10T08:14:42.704Z,7.50
2022-11-10T08:17:09.610Z,7.50
2022-11-10T08:19:36.421Z,7.60
2022-11-10T08:22:03.298Z,7.60
2022-11-10T08:24:30.172Z,7.60
2022-11-10T08:26:57.029Z,7.70
2022-11-10T08:29:23.849Z,7.70
2022-11-10T08:31:51.690Z,7.70
2022-11-10T08:34:18.731Z,7.70
2022-11-10T08:36:45.590Z,7.80
2022-11-10T08:39:13.254Z,7.80
2022-11-10T08:41:44.352Z,7.80
2022-11-10T08:44:15.522Z,7.70
2022-11-10T08:46:44.981Z,7.70
2022-11-10T08:49:11.803Z,7.70
2022-11-10T08:51:39.302Z,7.70
2022-11-10T08:54:06.380Z,7.60
2022-11-10T08:56:34.102Z,7.60
2022-11-10T08:59:01.353Z,7.50
2022-11-10T09:01:28.212Z,7.50
2022-11-10T09:03:55.047Z,7.60
2022-11-10T09:06:21.937Z,7.60
2022-11-10T09:08:48.865Z,7.60
2022-11-10T09:11:15.702Z,7.60
2022-11-10T09:13:42.685Z,7.70
2022-11-10T09:16:09.907Z,7.70
2022-11-10T09:18:36.752Z,7.70
2022-11-10T09:21:07.072Z,7.70
2022-11-10T09:23:33.908Z,7.70
2022-11-10T09:26:00.746Z,7.80
2022-11-10T09:28:27.687Z,7.80
2022-11-10T09:30:54.605Z,7.90
2022-11-10T09:33:22.056Z,7.90
2022-11-10T09:35:49.284Z,7.90
2022-11-10T09:38:16.148Z,8.00
2022-11-10T09:41:05.065Z,8.10
2022-11-10T09:43:35.426Z,8.10
2022-11-10T09:46:10.857Z,8.10
2022-11-10T09:49:01.731Z,8.20
2022-11-10T09:51:36.067Z,8.20
2022-11-10T09:54:35.375Z,8.20
2022-11-10T09:57:06.073Z,8.20
2022-11-10T09:59:34.911Z,8.20
2022-11-10T10:02:13.368Z,8.30
2022-11-10T10:04:51.663Z,8.30
2022-11-10T10:07:29.992Z,8.40
2022-11-10T10:10:02.778Z,8.40
2022-11-10T10:13:05.901Z,8.50
2022-11-10T10:15:51.418Z,8.60
2022-11-10T10:18:30.477Z,8.60
2022-11-10T10:21:02.979Z,8.70
2022-11-10T10:24:07.070Z,8.60
2022-11-10T10:26:29.087Z,8.60
2022-11-10T10:28:59.049Z,8.70
2022-11-10T10:31:39.294Z,8.70
2022-11-10T10:34:14.023Z,8.70
2022-11-10T10:36:40.959Z,8.80
2022-11-10T10:39:27.037Z,8.80
2022-11-10T10:41:53.900Z,8.80
2022-11-10T10:44:20.859Z,8.80
2022-11-10T10:46:50.743Z,8.80
2022-11-10T10:49:30.484Z,8.80
2022-11-10T10:52:06.878Z,8.80
2022-11-10T10:54:36.254Z,8.80
2022-11-10T10:57:29.318Z,8.80
2022-11-10T11:00:19.094Z,8.90
2022-11-10T11:03:11.528Z,8.90
2022-11-10T11:05:38.391Z,9.00
2022-11-10T11:08:05.432Z,9.00
2022-11-10T11:10:34.975Z,9.00
2022-11-10T11:13:26.350Z,9.10
2022-11-10T11:15:58.542Z,9.10
2022-11-10T11:18:27.510Z,9.20
2022-11-10T11:20:57.477Z,9.20
2022-11-10T11:23:24.365Z,9.20
2022-11-10T11:25:54.728Z,9.20
2022-11-10T11:28:42.846Z,9.30
2022-11-10T11:31:09.852Z,9.30
2022-11-10T11:34:04.833Z,9.40
2022-11-10T11:37:09.498Z,9.50
2022-11-10T11:39:48.977Z,9.50
2022-11-10T11:42:29.005Z,9.60
2022-11-10T11:45:16.812Z,9.60
2022-11-10T11:47:52.692Z,9.60
2022-11-10T11:50:47.760Z,9.60
2022-11-10T11:53:29.032Z,9.60
2022-11-10T11:56:01.358Z,9.60
2022-11-10T11:59:14.955Z,9.60
2022-11-10T12:02:02.079Z,9.60
2022-11-10T12:04:49.349Z,9.60
2022-11-10T12:07:43.201Z,9.60
2022-11-10T12:10:29.870Z,9.70
2022-11-10T12:13:08.355Z,9.70
2022-11-10T12:16:00.172Z,9.70
2022-11-10T12:18:37.692Z,9.70
2022-11-10T12:21:18.602Z,9.70
2022-11-10T12:24:12.161Z,9.70
2022-11-10T12:27:17.680Z,9.70
2022-11-10T12:30:09.450Z,9.60
2022-11-10T12:33:12.516Z,9.60
2022-11-10T12:35:43.639Z,9.60
2022-11-10T12:38:39.544Z,9.50
2022-11-10T12:41:14.878Z,10.90
2022-11-10T12:44:04.297Z,9.50
2022-11-10T12:46:31.189Z,9.50
2022-11-10T12:49:00.688Z,9.50
2022-11-10T12:51:33.630Z,9.50
2022-11-10T12:54:00.693Z,9.50
2022-11-10T12:56:42.356Z,9.50
2022-11-10T12:59:15.103Z,9.50
2022-11-10T13:01:46.517Z,9.50
2022-11-10T13:04:18.763Z,9.50
2022-11-10T13:07:02.122Z,9.50
2022-11-10T13:09:28.950Z,9.50
2022-11-10T13:12:07.559Z,9.60
2022-11-10T13:14:34.677Z,9.60
2022-11-10T13:17:01.605Z,9.60
2022-11-10T13:19:28.451Z,9.60
2022-11-10T13:22:01.216Z,9.60
2022-11-10T13:24:38.058Z,9.60
2022-11-10T13:27:24.766Z,9.70
2022-11-10T13:29:57.459Z,9.70
2022-11-10T13:32:31.584Z,9.70
2022-11-10T13:35:29.113Z,9.70
2022-11-10T13:37:57.609Z,9.80
2022-11-10T13:40:24.559Z,9.80
2022-11-10T13:43:19.602Z,9.80
2022-11-10T13:45:47.700Z,9.80
2022-11-10T13:48:17.489Z,9.90
2022-11-10T13:51:18.637Z,9.80
2022-11-10T13:54:07.268Z,9.80
2022-11-10T13:56:52.587Z,9.90
2022-11-10T13:59:25.583Z,9.90
2022-11-10T14:01:52.507Z,9.90
2022-11-10T14:04:41.100Z,9.90
2022-11-10T14:07:19.826Z,9.90
2022-11-10T14:09:51.245Z,9.90
2022-11-10T14:12:42.647Z,9.90
2022-11-10T14:15:20.044Z,10.00
2022-11-10T14:17:56.094Z,10.10
2022-11-10T14:20:41.856Z,10.10
2022-11-10T14:23:19.990Z,10.00
2022-11-10T14:26:03.479Z,10.00
2022-11-10T14:28:34.590Z,10.00
2022-11-10T14:31:01.550Z,9.90
2022-11-10T14:33:28.792Z,9.90
2022-11-10T14:36:05.004Z,9.90
2022-11-10T14:38:36.688Z,9.80
2022-11-10T14:41:06.319Z,9.80
2022-11-10T14:43:38.989Z,9.80
2022-11-10T14:46:08.104Z,9.80
2022-11-10T14:48:37.504Z,9.80
2022-11-10T14:51:15.463Z,9.80
2022-11-10T14:53:48.611Z,9.70
2022-11-10T14:56:26.884Z,9.70
2022-11-10T14:58:55.374Z,9.70
2022-11-10T15:01:34.793Z,9.70
2022-11-10T15:04:07.250Z,9.60
2022-11-10T15:06:35.015Z,9.50
2022-11-10T15:09:22.117Z,9.50
2022-11-10T15:12:02.676Z,9.50
2022-11-10T15:14:36.050Z,9.50
2022-11-10T15:17:08.988Z,9.40
2022-11-10T15:20:00.236Z,9.50
2022-11-10T15:22:31.391Z,9.50
2022-11-10T15:25:15.560Z,9.40
2022-11-10T15:27:52.081Z,9.40
2022-11-10T15:30:23.933Z,9.40
2022-11-10T15:32:51.711Z,9.40
2022-11-10T15:35:24.564Z,9.40
2022-11-10T15:38:09.278Z,9.40
2022-11-10T15:40:46.651Z,9.40
2022-11-10T15:43:26.903Z,9.40
2022-11-10T15:46:18.687Z,9.40
2022-11-10T15:48:48.995Z,9.40
2022-11-10T15:51:24.465Z,9.40
2022-11-10T15:53:54.411Z,9.40
2022-11-10T15:56:24.378Z,9.30
2022-11-10T15:58:59.091Z,9.40
2022-11-10T16:01:28.847Z,9.30
2022-11-10T16:03:55.788Z,9.40
2022-11-10T16:06:22.661Z,9.40
2022-11-10T16:08:49.525Z,9.50
2022-11-10T16:11:22.187Z,9.50
2022-11-10T16:13:51.059Z,9.50
2022-11-10T16:16:19.230Z,9.50
2022-11-10T16:18:46.496Z,9.50
2022-11-10T16:21:14.789Z,9.60
2022-11-10T16:23:42.510Z,9.60
2022-11-10T16:26:21.432Z,9.60
2022-11-10T16:28:49.766Z,9.70
2022-11-10T16:31:19.360Z,9.70
2022-11-10T16:33:47.108Z,9.70
2022-11-10T16:36:23.569Z,9.70
2022-11-10T16:38:50.784Z,9.70
2022-11-10T16:41:17.649Z,9.70
2022-11-10T16:43:44.498Z,9.70
2022-11-10T16:46:21.877Z,9.70
2022-11-10T16:48:50.910Z,9.10
2022-11-10T16:51:18.332Z,9.70
2022-11-10T16:53:45.571Z,9.70
2022-11-10T16:56:16.603Z,9.70
2022-11-10T16:58:43.533Z,9.70
2022-11-10T17:01:18.873Z,9.70
2022-11-10T17:03:49.413Z,9.70
2022-11-10T17:06:17.352Z,9.70
2022-11-10T17:08:46.438Z,9.70
2022-11-10T17:11:13.295Z,9.70
2022-11-10T17:13:40.141Z,9.70
2022-11-10T17:16:14.920Z,9.70
2022-11-10T17:18:41.928Z,9.70
2022-11-10T17:21:08.873Z,9.70
2022-11-10T17:23:36.773Z,9.60
2022-11-10T17:26:03.937Z,9.60
2022-11-10T17:28:30.785Z,9.60
2022-11-10T17:30:58.076Z,9.60
2022-11-10T17:33:25.307Z,9.60
2022-11-10T17:35:53.521Z,9.60
2022-11-10T17:38:25.424Z,9.60
2022-11-10T17:40:53.034Z,9.60
2022-11-10T17:43:20.383Z,9.60
2022-11-10T17:45:47.935Z,9.60
2022-11-10T17:48:15.138Z,9.60
2022-11-10T17:50:44.176Z,9.60
2022-11-10T17:53:28.362Z,9.60
2022-11-10T17:55:55.378Z,9.60
2022-11-10T17:58:22.527Z,9.60
2022-11-10T18:00:49.518Z,9.60
2022-11-10T18:03:18.612Z,9.60
2022-11-10T18:05:46.065Z,9.50
2022-11-10T18:08:14.860Z,9.50
2022-11-10T18:10:43.781Z,9.50
2022-11-10T18:13:11.041Z,9.50
2022-11-10T18:15:42.312Z,9.50
2022-11-10T18:18:14.783Z,9.50
2022-11-10T18:20:42.188Z,9.50
2022-11-10T18:23:12.675Z,9.40
2022-11-10T18:25:41.101Z,9.50
2022-11-10T18:28:09.426Z,9.50
2022-11-10T18:30:38.008Z,9.40
2022-11-10T18:33:05.663Z,9.40
2022-11-10T18:35:35.441Z,9.30
2022-11-10T18:38:02.517Z,9.30
2022-11-10T18:40:29.358Z,9.30
2022-11-10T18:43:04.642Z,9.30
2022-11-10T18:45:34.165Z,9.30
2022-11-10T18:48:04.559Z,9.30
2022-11-10T18:50:31.623Z,9.30
2022-11-10T18:52:58.717Z,9.20
2022-11-10T18:55:25.606Z,9.20
2022-11-10T18:57:53.006Z,9.20
2022-11-10T19:00:23.125Z,9.20
2022-11-10T19:02:50.011Z,9.20
2022-11-10T19:05:16.919Z,9.20
2022-11-10T19:07:43.818Z,9.20
2022-11-10T19:10:10.675Z,9.20
2022-11-10T19:12:37.597Z,9.10
2022-11-10T19:15:04.874Z,9.10
2022-11-10T19:17:32.531Z,9.00
2022-11-10T19:19:59.385Z,9.00
2022-11-10T19:22:26.329Z,8.90
2022-11-10T19:25:07.661Z,8.90
2022-11-10T19:27:35.911Z,8.80
2022-11-10T19:30:03.097Z,8.80
2022-11-10T19:32:30.032Z,8.80
2022-11-10T19:34:56.938Z,8.80
2022-11-10T19:37:23.862Z,8.70
2022-11-10T19:39:50.691Z,8.70
2022-11-10T19:42:17.912Z,8.60
2022-11-10T19:44:44.777Z,8.60
2022-11-10T19:47:11.833Z,8.60
2022-11-10T19:49:38.773Z,8.60
2022-11-10T19:52:05.808Z,8.60
2022-11-10T19:54:32.712Z,8.50
2022-11-10T19:57:01.164Z,8.50
2022-11-10T19:59:28.014Z,8.50
2022-11-10T20:01:56.436Z,8.50
2022-11-10T20:04:23.411Z,8.50
2022-11-10T20:07:10.216Z,8.50
2022-11-10T20:09:37.102Z,8.50
2022-11-10T20:12:04.068Z,8.50
2022-11-10T20:14:30.906Z,8.50
2022-11-10T20:16:58.314Z,8.50
2022-11-10T20:19:25.165Z,8.40
2022-11-10T20:21:51.992Z,8.50
2022-11-10T20:24:19.567Z,8.40
2022-11-10T20:26:46.412Z,8.40
2022-11-10T20:29:13.338Z,8.40
2022-11-10T20:31:40.232Z,8.30
2022-11-10T20:34:07.128Z,8.30
2022-11-10T20:36:34.242Z,8.20
2022-11-10T20:39:01.133Z,8.20
2022-11-10T20:41:29.649Z,8.20
2022-11-10T20:43:56.746Z,8.20
2022-11-10T20:49:10.742Z,8.20
2022-11-10T20:51:38.757Z,8.20
2022-11-10T20:54:05.649Z,8.10
2022-11-10T20:56:32.478Z,8.10
2022-11-10T20:58:59.367Z,8.20
2022-11-10T21:01:26.488Z,8.10
2022-11-10T21:03:54.402Z,8.10
2022-11-10T21:06:21.301Z,8.00
2022-11-10T21:08:48.207Z,8.10
2022-11-10T21:11:35.108Z,8.00
2022-11-10T21:14:02.276Z,8.00
2022-11-10T21:16:29.196Z,8.00
2022-11-10T21:18:57.269Z,8.00
2022-11-10T21:21:34.593Z,8.00
2022-11-10T21:24:06.928Z,8.00
2022-11-10T21:26:35.732Z,8.00
2022-11-10T21:29:03.332Z,7.90
2022-11-10T21:31:30.796Z,7.90
2022-11-10T21:33:58.588Z,7.90
2022-11-10T21:36:29.335Z,7.90
2022-11-10T21:38:57.827Z,8.00
2022-11-10T21:41:25.711Z,8.00
2022-11-10T21:43:52.561Z,8.00
2022-11-10T21:46:19.618Z,8.10
2022-11-10T21:48:46.508Z,8.10
2022-11-10T21:51:14.353Z,8.10
2022-11-10T21:53:44.348Z,8.10
2022-11-10T21:56:12.384Z,8.20
2022-11-10T21:58:39.831Z,8.10
2022-11-10T22:01:13.529Z,8.20
2022-11-10T22:03:41.403Z,8.10
2022-11-10T22:06:14.110Z,8.20
2022-11-10T22:08:42.602Z,8.10
2022-11-10T22:11:36.437Z,8.10
2022-11-10T22:14:39.775Z,8.10
2022-11-10T22:17:33.465Z,8.00
2022-11-10T22:20:00.315Z,8.00
2022-11-10T22:22:27.148Z,8.00
2022-11-10T22:24:54.631Z,7.90
2022-11-10T22:27:21.549Z,7.90
2022-11-10T22:29:48.373Z,7.90
2022-11-10T22:32:15.225Z,7.90
2022-11-10T22:34:42.072Z,7.80
2022-11-10T22:37:08.934Z,7.80
2022-11-10T22:39:54.438Z,6.70
2022-11-10T22:42:39.922Z,7.80
2022-11-10T22:45:07.384Z,7.80
2022-11-10T22:47:52.581Z,7.70
2022-11-10T22:50:19.481Z,7.70
2022-11-10T22:52:46.284Z,7.70
2022-11-10T22:55:13.164Z,7.60
2022-11-10T22:57:40.183Z,7.60
2022-11-10T23:00:08.705Z,7.60
2022-11-10T23:02:35.570Z,7.60
2022-11-10T23:05:02.439Z,7.60
2022-11-10T23:07:29.311Z,7.60
2022-11-10T23:09:56.128Z,7.50
2022-11-10T23:12:23.218Z,7.50
2022-11-10T23:14:50.060Z,7.50
2022-11-10T23:17:16.885Z,7.40
2022-11-10T23:19:43.819Z,7.40
2022-11-10T23:22:10.653Z,7.40
2022-11-10T23:24:37.456Z,7.40
2022-11-10T23:27:04.680Z,7.30
2022-11-10T23:29:31.494Z,7.30
2022-11-10T23:31:58.382Z,7.30
2022-11-10T23:34:25.269Z,7.20
2022-11-10T23:36:52.090Z,7.20
2022-11-10T23:39:19.263Z,7.20
2022-11-10T23:41:46.137Z,7.20
2022-11-10T23:44:12.969Z,7.10
2022-11-10T23:46:39.868Z,7.10
2022-11-10T23:49:06.719Z,7.10
2022-11-10T23:51:33.547Z,7.10
2022-11-10T23:54:00.442Z,7.00
2022-11-10T23:56:27.333Z,7.00
2022-11-10T23:58:54.171Z,7.00
